sensor_id;sensor_type;location;lat;lon;timestamp;P1;durP1;ratioP1;P2;durP2;ratioP2
49948;SDS011;35840;45.982;8.890;2022-10-16T00:00:54;16.23;;;10.73;;
49948;SDS011;35840;45.982;8.890;2022-10-16T00:03:20;19.65;;;10.45;;
49948;SDS011;35840;45.982;8.890;2022-10-16T00:05:53;16.83;;;10.30;;
49948;SDS011;35840;45.982;8.890;2022-10-16T00:08:20;12.07;;;9.40;;
49948;SDS011;35840;45.982;8.890;2022-10-16T00:10:47;13.80;;;10.57;;
49948;SDS011;35840;45.982;8.890;2022-10-16T00:13:13;20.75;;;11.10;;
49948;SDS011;35840;45.982;8.890;2022-10-16T00:15:40;16.45;;;10.23;;
49948;SDS011;35840;45.982;8.890;2022-10-16T00:18:09;18.70;;;11.10;;
49948;SDS011;35840;45.982;8.890;2022-10-16T00:20:36;19.85;;;11.05;;
49948;SDS011;35840;45.982;8.890;2022-10-16T00:23:03;22.80;;;11.35;;
49948;SDS011;35840;45.982;8.890;2022-10-16T00:25:31;11.60;;;10.38;;
49948;SDS011;35840;45.982;8.890;2022-10-16T00:28:02;14.57;;;10.75;;
49948;SDS011;35840;45.982;8.890;2022-10-16T00:30:29;14.15;;;9.80;;
49948;SDS011;35840;45.982;8.890;2022-10-16T00:32:56;12.88;;;10.80;;
49948;SDS011;35840;45.982;8.890;2022-10-16T00:35:22;21.08;;;10.20;;
49948;SDS011;35840;45.982;8.890;2022-10-16T00:37:49;13.48;;;9.45;;
49948;SDS011;35840;45.982;8.890;2022-10-16T00:40:16;18.05;;;10.90;;
49948;SDS011;35840;45.982;8.890;2022-10-16T00:42:43;14.35;;;9.63;;
49948;SDS011;35840;45.982;8.890;2022-10-16T00:45:10;14.80;;;10.07;;
49948;SDS011;35840;45.982;8.890;2022-10-16T00:47:38;15.43;;;9.68;;
49948;SDS011;35840;45.982;8.890;2022-10-16T00:50:08;12.65;;;9.40;;
49948;SDS011;35840;45.982;8.890;2022-10-16T00:52:41;12.75;;;10.43;;
49948;SDS011;35840;45.982;8.890;2022-10-16T00:55:12;13.90;;;9.90;;
49948;SDS011;35840;45.982;8.890;2022-10-16T00:57:39;14.05;;;10.70;;
49948;SDS011;35840;45.982;8.890;2022-10-16T01:00:07;15.55;;;9.38;;
49948;SDS011;35840;45.982;8.890;2022-10-16T01:02:36;18.83;;;10.85;;
49948;SDS011;35840;45.982;8.890;2022-10-16T01:05:02;18.75;;;11.07;;
49948;SDS011;35840;45.982;8.890;2022-10-16T01:18:06;15.93;;;11.07;;
49948;SDS011;35840;45.982;8.890;2022-10-16T01:20:40;18.50;;;10.38;;
49948;SDS011;35840;45.982;8.890;2022-10-16T01:31:22;16.58;;;9.98;;
49948;SDS011;35840;45.982;8.890;2022-10-16T01:34:05;14.38;;;10.38;;
49948;SDS011;35840;45.982;8.890;2022-10-16T01:36:41;16.40;;;10.82;;
49948;SDS011;35840;45.982;8.890;2022-10-16T01:39:14;15.38;;;11.02;;
49948;SDS011;35840;45.982;8.890;2022-10-16T01:41:46;12.88;;;10.52;;
49948;SDS011;35840;45.982;8.890;2022-10-16T01:44:31;20.13;;;11.60;;
49948;SDS011;35840;45.982;8.890;2022-10-16T01:46:59;17.63;;;11.10;;
49948;SDS011;35840;45.982;8.890;2022-10-16T01:49:27;13.98;;;10.68;;
49948;SDS011;35840;45.982;8.890;2022-10-16T01:51:59;13.55;;;9.82;;
49948;SDS011;35840;45.982;8.890;2022-10-16T01:54:28;14.95;;;9.38;;
49948;SDS011;35840;45.982;8.890;2022-10-16T01:56:58;12.85;;;9.35;;
49948;SDS011;35840;45.982;8.890;2022-10-16T01:59:27;18.33;;;9.45;;
49948;SDS011;35840;45.982;8.890;2022-10-16T02:01:59;15.75;;;10.30;;
49948;SDS011;35840;45.982;8.890;2022-10-16T02:04:30;12.90;;;9.60;;
49948;SDS011;35840;45.982;8.890;2022-10-16T02:07:18;10.68;;;9.13;;
49948;SDS011;35840;45.982;8.890;2022-10-16T02:09:44;13.30;;;9.95;;
49948;SDS011;35840;45.982;8.890;2022-10-16T02:14:46;12.35;;;9.35;;
49948;SDS011;35840;45.982;8.890;2022-10-16T02:17:14;11.93;;;9.00;;
49948;SDS011;35840;45.982;8.890;2022-10-16T02:19:43;15.38;;;9.68;;
49948;SDS011;35840;45.982;8.890;2022-10-16T02:22:15;14.13;;;9.85;;
49948;SDS011;35840;45.982;8.890;2022-10-16T02:24:59;15.93;;;8.98;;
49948;SDS011;35840;45.982;8.890;2022-10-16T02:30:41;15.77;;;11.02;;
49948;SDS011;35840;45.982;8.890;2022-10-16T02:33:11;19.00;;;10.48;;
49948;SDS011;35840;45.982;8.890;2022-10-16T02:35:40;18.55;;;10.00;;
49948;SDS011;35840;45.982;8.890;2022-10-16T02:38:09;15.60;;;8.98;;
49948;SDS011;35840;45.982;8.890;2022-10-16T02:40:38;14.40;;;9.77;;
49948;SDS011;35840;45.982;8.890;2022-10-16T02:43:05;13.70;;;9.75;;
49948;SDS011;35840;45.982;8.890;2022-10-16T02:45:33;14.40;;;9.90;;
49948;SDS011;35840;45.982;8.890;2022-10-16T02:47:59;17.08;;;10.55;;
49948;SDS011;35840;45.982;8.890;2022-10-16T02:50:26;19.27;;;10.65;;
49948;SDS011;35840;45.982;8.890;2022-10-16T02:52:53;18.30;;;10.90;;
49948;SDS011;35840;45.982;8.890;2022-10-16T02:55:19;14.20;;;10.77;;
49948;SDS011;35840;45.982;8.890;2022-10-16T02:57:46;11.45;;;9.25;;
49948;SDS011;35840;45.982;8.890;2022-10-16T03:00:14;16.10;;;10.93;;
49948;SDS011;35840;45.982;8.890;2022-10-16T03:02:43;13.45;;;10.45;;
49948;SDS011;35840;45.982;8.890;2022-10-16T03:05:10;13.75;;;10.10;;
49948;SDS011;35840;45.982;8.890;2022-10-16T03:07:37;15.05;;;11.35;;
49948;SDS011;35840;45.982;8.890;2022-10-16T03:10:04;13.90;;;10.52;;
49948;SDS011;35840;45.982;8.890;2022-10-16T03:12:31;14.63;;;11.57;;
49948;SDS011;35840;45.982;8.890;2022-10-16T03:14:57;16.55;;;10.43;;
49948;SDS011;35840;45.982;8.890;2022-10-16T03:17:24;13.05;;;9.43;;
49948;SDS011;35840;45.982;8.890;2022-10-16T03:19:52;14.73;;;9.85;;
49948;SDS011;35840;45.982;8.890;2022-10-16T03:22:19;14.82;;;9.98;;
49948;SDS011;35840;45.982;8.890;2022-10-16T03:24:45;12.73;;;9.63;;
49948;SDS011;35840;45.982;8.890;2022-10-16T03:27:12;14.65;;;10.32;;
49948;SDS011;35840;45.982;8.890;2022-10-16T03:29:39;15.45;;;10.65;;
49948;SDS011;35840;45.982;8.890;2022-10-16T03:32:05;12.85;;;10.38;;
49948;SDS011;35840;45.982;8.890;2022-10-16T03:34:32;12.65;;;9.60;;
49948;SDS011;35840;45.982;8.890;2022-10-16T03:36:59;15.27;;;9.60;;
49948;SDS011;35840;45.982;8.890;2022-10-16T03:39:25;17.75;;;10.82;;
49948;SDS011;35840;45.982;8.890;2022-10-16T03:41:52;18.33;;;10.77;;
49948;SDS011;35840;45.982;8.890;2022-10-16T03:44:18;19.70;;;9.80;;
49948;SDS011;35840;45.982;8.890;2022-10-16T03:46:45;16.33;;;10.02;;
49948;SDS011;35840;45.982;8.890;2022-10-16T03:49:12;19.08;;;9.38;;
49948;SDS011;35840;45.982;8.890;2022-10-16T03:51:38;14.65;;;9.98;;
49948;SDS011;35840;45.982;8.890;2022-10-16T03:54:05;16.42;;;10.48;;
49948;SDS011;35840;45.982;8.890;2022-10-16T03:56:31;16.58;;;11.55;;
49948;SDS011;35840;45.982;8.890;2022-10-16T03:58:58;15.48;;;10.70;;
49948;SDS011;35840;45.982;8.890;2022-10-16T04:01:25;11.50;;;9.75;;
49948;SDS011;35840;45.982;8.890;2022-10-16T04:03:51;14.50;;;9.88;;
49948;SDS011;35840;45.982;8.890;2022-10-16T04:06:18;17.55;;;9.55;;
49948;SDS011;35840;45.982;8.890;2022-10-16T04:08:45;14.50;;;9.35;;
49948;SDS011;35840;45.982;8.890;2022-10-16T04:11:11;13.18;;;9.45;;
49948;SDS011;35840;45.982;8.890;2022-10-16T04:13:38;13.70;;;9.73;;
49948;SDS011;35840;45.982;8.890;2022-10-16T04:16:05;17.50;;;9.95;;
49948;SDS011;35840;45.982;8.890;2022-10-16T04:18:31;16.27;;;11.00;;
49948;SDS011;35840;45.982;8.890;2022-10-16T04:21:02;11.98;;;9.55;;
49948;SDS011;35840;45.982;8.890;2022-10-16T04:23:30;14.10;;;9.60;;
49948;SDS011;35840;45.982;8.890;2022-10-16T04:25:57;15.70;;;9.57;;
49948;SDS011;35840;45.982;8.890;2022-10-16T04:28:24;15.77;;;8.88;;
49948;SDS011;35840;45.982;8.890;2022-10-16T04:30:50;13.60;;;8.82;;
49948;SDS011;35840;45.982;8.890;2022-10-16T04:33:17;18.02;;;9.35;;
49948;SDS011;35840;45.982;8.890;2022-10-16T04:35:44;14.73;;;9.80;;
49948;SDS011;35840;45.982;8.890;2022-10-16T04:38:10;15.90;;;9.73;;
49948;SDS011;35840;45.982;8.890;2022-10-16T04:40:37;17.52;;;10.30;;
49948;SDS011;35840;45.982;8.890;2022-10-16T04:43:04;13.35;;;8.93;;
49948;SDS011;35840;45.982;8.890;2022-10-16T04:45:31;15.15;;;9.15;;
49948;SDS011;35840;45.982;8.890;2022-10-16T04:47:58;15.80;;;9.30;;
49948;SDS011;35840;45.982;8.890;2022-10-16T04:50:25;11.70;;;9.15;;
49948;SDS011;35840;45.982;8.890;2022-10-16T04:53:04;12.18;;;8.65;;
49948;SDS011;35840;45.982;8.890;2022-10-16T04:55:31;13.85;;;8.82;;
49948;SDS011;35840;45.982;8.890;2022-10-16T04:57:58;11.93;;;9.13;;
49948;SDS011;35840;45.982;8.890;2022-10-16T05:00:25;12.05;;;8.40;;
49948;SDS011;35840;45.982;8.890;2022-10-16T05:02:52;16.45;;;9.18;;
49948;SDS011;35840;45.982;8.890;2022-10-16T05:05:19;20.50;;;10.85;;
49948;SDS011;35840;45.982;8.890;2022-10-16T05:07:46;13.65;;;8.88;;
49948;SDS011;35840;45.982;8.890;2022-10-16T05:10:14;9.95;;;8.90;;
49948;SDS011;35840;45.982;8.890;2022-10-16T05:12:40;12.90;;;8.60;;
49948;SDS011;35840;45.982;8.890;2022-10-16T05:15:07;20.00;;;9.55;;
49948;SDS011;35840;45.982;8.890;2022-10-16T05:17:34;12.05;;;8.82;;
49948;SDS011;35840;45.982;8.890;2022-10-16T05:20:04;13.70;;;8.70;;
49948;SDS011;35840;45.982;8.890;2022-10-16T05:22:31;14.27;;;10.00;;
49948;SDS011;35840;45.982;8.890;2022-10-16T05:24:58;14.10;;;9.20;;
49948;SDS011;35840;45.982;8.890;2022-10-16T05:27:24;14.98;;;9.82;;
49948;SDS011;35840;45.982;8.890;2022-10-16T05:29:52;14.25;;;9.73;;
49948;SDS011;35840;45.982;8.890;2022-10-16T05:32:18;15.18;;;9.95;;
49948;SDS011;35840;45.982;8.890;2022-10-16T05:34:45;11.90;;;9.27;;
49948;SDS011;35840;45.982;8.890;2022-10-16T05:37:13;17.05;;;10.38;;
49948;SDS011;35840;45.982;8.890;2022-10-16T05:39:40;15.68;;;10.50;;
49948;SDS011;35840;45.982;8.890;2022-10-16T05:42:07;12.63;;;9.48;;
49948;SDS011;35840;45.982;8.890;2022-10-16T05:44:34;14.82;;;10.52;;
49948;SDS011;35840;45.982;8.890;2022-10-16T05:47:00;13.07;;;8.85;;
49948;SDS011;35840;45.982;8.890;2022-10-16T05:49:27;11.35;;;9.35;;
49948;SDS011;35840;45.982;8.890;2022-10-16T05:51:54;16.98;;;9.45;;
49948;SDS011;35840;45.982;8.890;2022-10-16T05:54:20;14.65;;;9.10;;
49948;SDS011;35840;45.982;8.890;2022-10-16T05:56:47;15.23;;;8.93;;
49948;SDS011;35840;45.982;8.890;2022-10-16T05:59:14;12.80;;;9.93;;
49948;SDS011;35840;45.982;8.890;2022-10-16T06:01:40;16.00;;;10.10;;
49948;SDS011;35840;45.982;8.890;2022-10-16T06:04:08;14.90;;;9.82;;
49948;SDS011;35840;45.982;8.890;2022-10-16T06:06:40;13.55;;;9.93;;
49948;SDS011;35840;45.982;8.890;2022-10-16T06:09:07;14.57;;;9.93;;
49948;SDS011;35840;45.982;8.890;2022-10-16T06:11:33;12.18;;;9.80;;
49948;SDS011;35840;45.982;8.890;2022-10-16T06:14:00;15.90;;;9.60;;
49948;SDS011;35840;45.982;8.890;2022-10-16T06:16:33;13.60;;;10.00;;
49948;SDS011;35840;45.982;8.890;2022-10-16T06:19:01;12.88;;;9.23;;
49948;SDS011;35840;45.982;8.890;2022-10-16T06:21:28;19.05;;;9.88;;
49948;SDS011;35840;45.982;8.890;2022-10-16T06:23:56;11.57;;;8.98;;
49948;SDS011;35840;45.982;8.890;2022-10-16T06:26:24;12.00;;;9.07;;
49948;SDS011;35840;45.982;8.890;2022-10-16T06:28:56;10.63;;;8.88;;
49948;SDS011;35840;45.982;8.890;2022-10-16T06:31:25;13.55;;;10.57;;
49948;SDS011;35840;45.982;8.890;2022-10-16T06:33:54;12.30;;;8.68;;
49948;SDS011;35840;45.982;8.890;2022-10-16T06:36:22;14.60;;;10.50;;
49948;SDS011;35840;45.982;8.890;2022-10-16T06:38:51;15.32;;;10.40;;
49948;SDS011;35840;45.982;8.890;2022-10-16T06:41:18;18.00;;;10.88;;
49948;SDS011;35840;45.982;8.890;2022-10-16T06:43:47;16.38;;;10.30;;
49948;SDS011;35840;45.982;8.890;2022-10-16T06:46:16;13.00;;;9.93;;
49948;SDS011;35840;45.982;8.890;2022-10-16T06:48:44;18.67;;;12.18;;
49948;SDS011;35840;45.982;8.890;2022-10-16T06:51:12;14.05;;;11.65;;
49948;SDS011;35840;45.982;8.890;2022-10-16T06:53:41;13.77;;;11.23;;
49948;SDS011;35840;45.982;8.890;2022-10-16T06:56:27;14.15;;;11.07;;
49948;SDS011;35840;45.982;8.890;2022-10-16T06:58:55;15.85;;;10.77;;
49948;SDS011;35840;45.982;8.890;2022-10-16T07:01:23;15.95;;;11.38;;
49948;SDS011;35840;45.982;8.890;2022-10-16T07:03:50;16.70;;;12.10;;
49948;SDS011;35840;45.982;8.890;2022-10-16T07:06:19;14.85;;;11.93;;
49948;SDS011;35840;45.982;8.890;2022-10-16T07:08:47;15.98;;;11.85;;
49948;SDS011;35840;45.982;8.890;2022-10-16T07:11:15;22.23;;;12.18;;
49948;SDS011;35840;45.982;8.890;2022-10-16T07:13:43;17.42;;;11.82;;
49948;SDS011;35840;45.982;8.890;2022-10-16T07:16:19;20.17;;;12.43;;
49948;SDS011;35840;45.982;8.890;2022-10-16T07:18:47;17.35;;;12.75;;
49948;SDS011;35840;45.982;8.890;2022-10-16T07:21:17;15.05;;;11.23;;
49948;SDS011;35840;45.982;8.890;2022-10-16T07:23:45;16.85;;;11.93;;
49948;SDS011;35840;45.982;8.890;2022-10-16T07:26:16;15.48;;;12.10;;
49948;SDS011;35840;45.982;8.890;2022-10-16T07:28:43;14.73;;;12.30;;
49948;SDS011;35840;45.982;8.890;2022-10-16T07:31:11;15.75;;;11.90;;
49948;SDS011;35840;45.982;8.890;2022-10-16T07:33:39;14.10;;;12.23;;
49948;SDS011;35840;45.982;8.890;2022-10-16T07:36:09;14.75;;;11.40;;
49948;SDS011;35840;45.982;8.890;2022-10-16T07:38:42;17.23;;;12.27;;
49948;SDS011;35840;45.982;8.890;2022-10-16T07:41:10;16.88;;;13.25;;
49948;SDS011;35840;45.982;8.890;2022-10-16T07:43:38;18.27;;;12.32;;
49948;SDS011;35840;45.982;8.890;2022-10-16T07:46:05;17.35;;;13.30;;
49948;SDS011;35840;45.982;8.890;2022-10-16T07:48:33;16.83;;;11.82;;
49948;SDS011;35840;45.982;8.890;2022-10-16T07:51:01;19.00;;;12.52;;
49948;SDS011;35840;45.982;8.890;2022-10-16T07:53:29;17.33;;;11.88;;
49948;SDS011;35840;45.982;8.890;2022-10-16T07:56:03;17.73;;;12.40;;
49948;SDS011;35840;45.982;8.890;2022-10-16T08:01:02;19.25;;;12.57;;
49948;SDS011;35840;45.982;8.890;2022-10-16T08:03:30;15.80;;;13.00;;
49948;SDS011;35840;45.982;8.890;2022-10-16T08:05:57;24.60;;;14.82;;
49948;SDS011;35840;45.982;8.890;2022-10-16T08:08:24;15.98;;;12.95;;
49948;SDS011;35840;45.982;8.890;2022-10-16T08:10:52;18.10;;;13.02;;
49948;SDS011;35840;45.982;8.890;2022-10-16T08:13:18;18.63;;;12.68;;
49948;SDS011;35840;45.982;8.890;2022-10-16T08:15:45;18.20;;;13.10;;
49948;SDS011;35840;45.982;8.890;2022-10-16T08:18:13;16.17;;;11.70;;
49948;SDS011;35840;45.982;8.890;2022-10-16T08:20:41;17.80;;;11.43;;
49948;SDS011;35840;45.982;8.890;2022-10-16T08:23:09;19.88;;;12.45;;
49948;SDS011;35840;45.982;8.890;2022-10-16T08:25:38;13.25;;;9.93;;
49948;SDS011;35840;45.982;8.890;2022-10-16T08:28:06;16.15;;;11.40;;
49948;SDS011;35840;45.982;8.890;2022-10-16T08:30:35;18.77;;;12.40;;
49948;SDS011;35840;45.982;8.890;2022-10-16T08:33:02;16.60;;;12.82;;
49948;SDS011;35840;45.982;8.890;2022-10-16T08:35:29;16.48;;;13.05;;
49948;SDS011;35840;45.982;8.890;2022-10-16T08:37:56;16.65;;;12.05;;
49948;SDS011;35840;45.982;8.890;2022-10-16T08:40:24;19.23;;;11.63;;
49948;SDS011;35840;45.982;8.890;2022-10-16T08:50:26;14.43;;;11.65;;
49948;SDS011;35840;45.982;8.890;2022-10-16T08:52:54;13.07;;;11.15;;
49948;SDS011;35840;45.982;8.890;2022-10-16T08:55:32;19.38;;;12.43;;
49948;SDS011;35840;45.982;8.890;2022-10-16T08:58:14;17.38;;;13.48;;
49948;SDS011;35840;45.982;8.890;2022-10-16T09:00:44;19.15;;;14.27;;
49948;SDS011;35840;45.982;8.890;2022-10-16T09:03:17;20.27;;;13.85;;
49948;SDS011;35840;45.982;8.890;2022-10-16T09:09:06;19.17;;;14.40;;
49948;SDS011;35840;45.982;8.890;2022-10-16T09:17:10;20.95;;;13.85;;
49948;SDS011;35840;45.982;8.890;2022-10-16T09:20:26;16.70;;;13.18;;
49948;SDS011;35840;45.982;8.890;2022-10-16T09:23:13;19.80;;;14.13;;
49948;SDS011;35840;45.982;8.890;2022-10-16T09:25:44;16.13;;;12.55;;
49948;SDS011;35840;45.982;8.890;2022-10-16T09:28:14;14.43;;;11.77;;
49948;SDS011;35840;45.982;8.890;2022-10-16T09:30:42;15.85;;;11.98;;
49948;SDS011;35840;45.982;8.890;2022-10-16T09:33:10;17.92;;;13.57;;
49948;SDS011;35840;45.982;8.890;2022-10-16T09:35:42;17.30;;;13.48;;
49948;SDS011;35840;45.982;8.890;2022-10-16T09:40:52;15.00;;;12.43;;
49948;SDS011;35840;45.982;8.890;2022-10-16T09:43:25;19.02;;;12.18;;
49948;SDS011;35840;45.982;8.890;2022-10-16T09:48:44;17.30;;;12.02;;
49948;SDS011;35840;45.982;8.890;2022-10-16T09:51:34;16.83;;;13.07;;
49948;SDS011;35840;45.982;8.890;2022-10-16T09:56:36;16.67;;;12.15;;
49948;SDS011;35840;45.982;8.890;2022-10-16T09:59:15;17.67;;;13.00;;
49948;SDS011;35840;45.982;8.890;2022-10-16T10:04:17;17.13;;;12.95;;
49948;SDS011;35840;45.982;8.890;2022-10-16T10:06:46;16.15;;;12.80;;
49948;SDS011;35840;45.982;8.890;2022-10-16T10:12:18;13.48;;;11.52;;
49948;SDS011;35840;45.982;8.890;2022-10-16T10:14:53;16.15;;;12.15;;
49948;SDS011;35840;45.982;8.890;2022-10-16T10:17:24;16.52;;;11.77;;
49948;SDS011;35840;45.982;8.890;2022-10-16T10:19:54;18.70;;;10.40;;
49948;SDS011;35840;45.982;8.890;2022-10-16T10:22:42;12.00;;;10.70;;
49948;SDS011;35840;45.982;8.890;2022-10-16T10:30:24;15.68;;;10.60;;
49948;SDS011;35840;45.982;8.890;2022-10-16T10:38:50;15.43;;;11.95;;
49948;SDS011;35840;45.982;8.890;2022-10-16T10:44:07;18.20;;;11.70;;
49948;SDS011;35840;45.982;8.890;2022-10-16T10:46:57;17.17;;;10.80;;
49948;SDS011;35840;45.982;8.890;2022-10-16T10:55:20;14.52;;;10.90;;
49948;SDS011;35840;45.982;8.890;2022-10-16T11:06:16;13.20;;;10.60;;
49948;SDS011;35840;45.982;8.890;2022-10-16T11:08:51;14.10;;;9.65;;
49948;SDS011;35840;45.982;8.890;2022-10-16T11:16:39;12.38;;;10.30;;
49948;SDS011;35840;45.982;8.890;2022-10-16T11:27:45;13.70;;;10.32;;
49948;SDS011;35840;45.982;8.890;2022-10-16T11:30:27;12.15;;;10.18;;
49948;SDS011;35840;45.982;8.890;2022-10-16T11:38:12;15.15;;;11.90;;
49948;SDS011;35840;45.982;8.890;2022-10-16T11:40:47;15.95;;;11.15;;
49948;SDS011;35840;45.982;8.890;2022-10-16T11:43:22;13.45;;;11.30;;
49948;SDS011;35840;45.982;8.890;2022-10-16T11:45:55;16.77;;;11.27;;
49948;SDS011;35840;45.982;8.890;2022-10-16T11:51:51;15.98;;;12.20;;
49948;SDS011;35840;45.982;8.890;2022-10-16T11:56:28;16.23;;;11.45;;
49948;SDS011;35840;45.982;8.890;2022-10-16T12:04:24;15.73;;;11.32;;
49948;SDS011;35840;45.982;8.890;2022-10-16T12:07:02;14.30;;;11.38;;
49948;SDS011;35840;45.982;8.890;2022-10-16T12:09:34;15.18;;;10.98;;
49948;SDS011;35840;45.982;8.890;2022-10-16T12:12:04;15.98;;;11.98;;
49948;SDS011;35840;45.982;8.890;2022-10-16T12:14:59;14.82;;;10.07;;
49948;SDS011;35840;45.982;8.890;2022-10-16T12:17:47;18.33;;;11.85;;
49948;SDS011;35840;45.982;8.890;2022-10-16T12:22:48;15.45;;;11.38;;
49948;SDS011;35840;45.982;8.890;2022-10-16T12:25:35;15.23;;;11.85;;
49948;SDS011;35840;45.982;8.890;2022-10-16T12:28:15;15.70;;;11.90;;
49948;SDS011;35840;45.982;8.890;2022-10-16T12:31:03;14.88;;;11.77;;
49948;SDS011;35840;45.982;8.890;2022-10-16T12:33:42;15.43;;;11.32;;
49948;SDS011;35840;45.982;8.890;2022-10-16T12:36:29;15.38;;;11.77;;
49948;SDS011;35840;45.982;8.890;2022-10-16T12:38:58;18.20;;;12.07;;
49948;SDS011;35840;45.982;8.890;2022-10-16T12:41:28;14.65;;;11.27;;
49948;SDS011;35840;45.982;8.890;2022-10-16T12:43:56;12.65;;;10.48;;
49948;SDS011;35840;45.982;8.890;2022-10-16T12:46:33;18.08;;;12.07;;
49948;SDS011;35840;45.982;8.890;2022-10-16T12:49:20;21.20;;;12.90;;
49948;SDS011;35840;45.982;8.890;2022-10-16T12:51:50;16.85;;;10.85;;
49948;SDS011;35840;45.982;8.890;2022-10-16T12:54:19;15.05;;;11.35;;
49948;SDS011;35840;45.982;8.890;2022-10-16T13:02:43;16.08;;;10.88;;
49948;SDS011;35840;45.982;8.890;2022-10-16T13:33:14;16.15;;;10.40;;
49948;SDS011;35840;45.982;8.890;2022-10-16T13:35:48;19.63;;;12.30;;
49948;SDS011;35840;45.982;8.890;2022-10-16T13:38:18;14.32;;;10.20;;
49948;SDS011;35840;45.982;8.890;2022-10-16T13:43:19;17.77;;;10.77;;
49948;SDS011;35840;45.982;8.890;2022-10-16T13:45:53;16.77;;;10.40;;
49948;SDS011;35840;45.982;8.890;2022-10-16T13:48:31;16.92;;;9.40;;
49948;SDS011;35840;45.982;8.890;2022-10-16T13:51:33;13.10;;;10.40;;
49948;SDS011;35840;45.982;8.890;2022-10-16T13:53:54;14.40;;;11.13;;
49948;SDS011;35840;45.982;8.890;2022-10-16T13:56:23;15.40;;;11.88;;
49948;SDS011;35840;45.982;8.890;2022-10-16T13:59:20;12.50;;;9.48;;
49948;SDS011;35840;45.982;8.890;2022-10-16T14:01:50;14.27;;;9.75;;
49948;SDS011;35840;45.982;8.890;2022-10-16T14:04:20;11.95;;;9.57;;
49948;SDS011;35840;45.982;8.890;2022-10-16T14:06:49;14.57;;;10.13;;
49948;SDS011;35840;45.982;8.890;2022-10-16T14:11:51;13.63;;;10.38;;
49948;SDS011;35840;45.982;8.890;2022-10-16T14:14:22;14.93;;;10.18;;
49948;SDS011;35840;45.982;8.890;2022-10-16T14:16:49;11.85;;;9.02;;
49948;SDS011;35840;45.982;8.890;2022-10-16T14:19:26;16.90;;;9.38;;
49948;SDS011;35840;45.982;8.890;2022-10-16T14:21:56;11.07;;;8.90;;
49948;SDS011;35840;45.982;8.890;2022-10-16T14:27:00;16.55;;;9.90;;
49948;SDS011;35840;45.982;8.890;2022-10-16T14:29:28;16.00;;;11.60;;
49948;SDS011;35840;45.982;8.890;2022-10-16T14:32:00;13.98;;;10.50;;
49948;SDS011;35840;45.982;8.890;2022-10-16T14:34:36;19.85;;;11.02;;
49948;SDS011;35840;45.982;8.890;2022-10-16T14:37:14;14.82;;;10.80;;
49948;SDS011;35840;45.982;8.890;2022-10-16T14:39:54;16.27;;;9.98;;
49948;SDS011;35840;45.982;8.890;2022-10-16T14:42:23;13.68;;;9.60;;
49948;SDS011;35840;45.982;8.890;2022-10-16T14:44:52;11.35;;;9.15;;
49948;SDS011;35840;45.982;8.890;2022-10-16T14:47:21;13.05;;;10.73;;
49948;SDS011;35840;45.982;8.890;2022-10-16T14:49:53;13.63;;;10.63;;
49948;SDS011;35840;45.982;8.890;2022-10-16T14:52:22;18.38;;;9.98;;
49948;SDS011;35840;45.982;8.890;2022-10-16T14:54:49;21.88;;;11.23;;
49948;SDS011;35840;45.982;8.890;2022-10-16T14:57:20;11.68;;;9.57;;
49948;SDS011;35840;45.982;8.890;2022-10-16T14:59:51;11.43;;;9.25;;
49948;SDS011;35840;45.982;8.890;2022-10-16T15:04:49;13.82;;;8.80;;
49948;SDS011;35840;45.982;8.890;2022-10-16T15:07:16;14.75;;;10.38;;
49948;SDS011;35840;45.982;8.890;2022-10-16T15:09:43;14.50;;;9.80;;
49948;SDS011;35840;45.982;8.890;2022-10-16T15:12:15;14.98;;;9.07;;
49948;SDS011;35840;45.982;8.890;2022-10-16T15:14:42;11.27;;;8.55;;
49948;SDS011;35840;45.982;8.890;2022-10-16T15:17:10;13.45;;;9.32;;
49948;SDS011;35840;45.982;8.890;2022-10-16T15:19:37;13.10;;;9.27;;
49948;SDS011;35840;45.982;8.890;2022-10-16T15:22:04;11.93;;;8.88;;
49948;SDS011;35840;45.982;8.890;2022-10-16T15:24:32;12.70;;;10.05;;
49948;SDS011;35840;45.982;8.890;2022-10-16T15:26:59;17.00;;;10.40;;
49948;SDS011;35840;45.982;8.890;2022-10-16T15:29:25;13.93;;;10.10;;
49948;SDS011;35840;45.982;8.890;2022-10-16T15:31:52;13.43;;;9.48;;
49948;SDS011;35840;45.982;8.890;2022-10-16T15:34:19;12.23;;;10.02;;
49948;SDS011;35840;45.982;8.890;2022-10-16T15:36:46;14.93;;;9.35;;
49948;SDS011;35840;45.982;8.890;2022-10-16T15:39:14;13.40;;;9.80;;
49948;SDS011;35840;45.982;8.890;2022-10-16T15:41:43;11.82;;;8.68;;
49948;SDS011;35840;45.982;8.890;2022-10-16T15:44:11;10.23;;;8.27;;
49948;SDS011;35840;45.982;8.890;2022-10-16T15:46:37;12.02;;;9.30;;
49948;SDS011;35840;45.982;8.890;2022-10-16T15:49:04;11.93;;;9.38;;
49948;SDS011;35840;45.982;8.890;2022-10-16T15:51:31;13.15;;;9.95;;
49948;SDS011;35840;45.982;8.890;2022-10-16T15:53:59;13.75;;;10.52;;
49948;SDS011;35840;45.982;8.890;2022-10-16T15:56:28;15.23;;;10.45;;
49948;SDS011;35840;45.982;8.890;2022-10-16T15:58:56;10.98;;;9.27;;
49948;SDS011;35840;45.982;8.890;2022-10-16T16:01:24;13.48;;;9.63;;
49948;SDS011;35840;45.982;8.890;2022-10-16T16:03:52;12.43;;;9.63;;
49948;SDS011;35840;45.982;8.890;2022-10-16T16:06:20;12.63;;;9.70;;
49948;SDS011;35840;45.982;8.890;2022-10-16T16:08:50;15.55;;;9.95;;
49948;SDS011;35840;45.982;8.890;2022-10-16T16:11:18;17.63;;;8.63;;
49948;SDS011;35840;45.982;8.890;2022-10-16T16:13:46;15.73;;;9.75;;
49948;SDS011;35840;45.982;8.890;2022-10-16T16:16:13;12.02;;;9.23;;
49948;SDS011;35840;45.982;8.890;2022-10-16T16:18:42;21.25;;;9.50;;
49948;SDS011;35840;45.982;8.890;2022-10-16T16:21:10;13.50;;;8.65;;
49948;SDS011;35840;45.982;8.890;2022-10-16T16:23:38;13.15;;;8.38;;
49948;SDS011;35840;45.982;8.890;2022-10-16T16:26:06;11.88;;;8.70;;
49948;SDS011;35840;45.982;8.890;2022-10-16T16:28:34;13.20;;;8.80;;
49948;SDS011;35840;45.982;8.890;2022-10-16T16:31:01;11.95;;;9.27;;
49948;SDS011;35840;45.982;8.890;2022-10-16T16:33:29;11.07;;;9.02;;
49948;SDS011;35840;45.982;8.890;2022-10-16T16:35:58;11.93;;;9.13;;
49948;SDS011;35840;45.982;8.890;2022-10-16T16:38:26;18.17;;;8.95;;
49948;SDS011;35840;45.982;8.890;2022-10-16T16:40:54;14.05;;;9.18;;
49948;SDS011;35840;45.982;8.890;2022-10-16T16:43:22;19.58;;;10.48;;
49948;SDS011;35840;45.982;8.890;2022-10-16T16:45:56;17.15;;;9.15;;
49948;SDS011;35840;45.982;8.890;2022-10-16T16:48:27;17.52;;;9.10;;
49948;SDS011;35840;45.982;8.890;2022-10-16T16:50:54;14.15;;;9.57;;
49948;SDS011;35840;45.982;8.890;2022-10-16T16:53:21;13.75;;;9.70;;
49948;SDS011;35840;45.982;8.890;2022-10-16T16:55:48;20.40;;;10.85;;
49948;SDS011;35840;45.982;8.890;2022-10-16T16:58:16;12.95;;;8.73;;
49948;SDS011;35840;45.982;8.890;2022-10-16T17:00:46;12.25;;;9.10;;
49948;SDS011;35840;45.982;8.890;2022-10-16T17:03:22;14.93;;;9.48;;
49948;SDS011;35840;45.982;8.890;2022-10-16T17:06:23;10.23;;;9.00;;
49948;SDS011;35840;45.982;8.890;2022-10-16T17:08:46;16.77;;;10.25;;
49948;SDS011;35840;45.982;8.890;2022-10-16T17:11:14;13.05;;;9.13;;
49948;SDS011;35840;45.982;8.890;2022-10-16T17:13:43;12.07;;;9.85;;
49948;SDS011;35840;45.982;8.890;2022-10-16T17:16:10;16.48;;;10.23;;
49948;SDS011;35840;45.982;8.890;2022-10-16T17:18:37;13.23;;;9.70;;
49948;SDS011;35840;45.982;8.890;2022-10-16T17:21:05;11.35;;;9.07;;
49948;SDS011;35840;45.982;8.890;2022-10-16T17:23:34;17.25;;;9.95;;